createdAt,value
2022-09-04T00:01:05.508Z,2.65
2022-09-04T00:03:47.555Z,2.42
2022-09-04T00:06:20.509Z,2.65
2022-09-04T00:09:19.011Z,3.40
2022-09-04T00:11:53.244Z,3.05
2022-09-04T00:14:50.744Z,2.28
2022-09-04T00:17:37.595Z,2.45
2022-09-04T00:20:14.395Z,2.60
2022-09-04T00:22:52.567Z,2.50
2022-09-04T00:25:40.388Z,2.63
2022-09-04T00:28:20.191Z,2.50
2022-09-04T00:30:56.189Z,2.60
2022-09-04T00:33:34.874Z,2.25
2022-09-04T00:36:04.650Z,2.00
2022-09-04T00:38:47.233Z,2.88
2022-09-04T00:41:39.123Z,2.30
2022-09-04T00:46:42.015Z,2.88
2022-09-04T00:49:42.264Z,2.63
2022-09-04T00:52:58.504Z,2.30
2022-09-04T00:55:52.750Z,2.13
2022-09-04T00:58:31.937Z,2.05
2022-09-04T01:01:00.040Z,1.92
2022-09-04T01:03:30.306Z,2.03
2022-09-04T01:06:13.104Z,2.50
2022-09-04T01:09:01.356Z,1.52
2022-09-04T01:11:43.490Z,1.90
2022-09-04T01:14:39.414Z,1.80
2022-09-04T01:17:26.023Z,1.75
2022-09-04T01:20:27.519Z,1.75
2022-09-04T01:23:40.424Z,2.03
2022-09-04T01:26:09.927Z,2.17
2022-09-04T01:29:06.309Z,2.03
2022-09-04T01:31:44.642Z,1.60
2022-09-04T01:34:20.838Z,1.77
2022-09-04T01:36:47.784Z,1.42
2022-09-04T01:39:16.097Z,1.58
2022-09-04T01:41:50.574Z,1.85
2022-09-04T01:44:17.559Z,1.73
2022-09-04T01:47:09.381Z,1.50
2022-09-04T01:49:43.589Z,2.00
2022-09-04T01:52:16.585Z,1.88
2022-09-04T01:54:49.942Z,1.42
2022-09-04T01:57:28.823Z,2.00
2022-09-04T01:59:58.536Z,1.90
2022-09-04T02:02:54.323Z,1.98
2022-09-04T02:05:30.289Z,1.92
2022-09-04T02:08:06.390Z,2.30
2022-09-04T02:10:58.089Z,1.95
2022-09-04T02:13:40.469Z,2.20
2022-09-04T02:16:37.148Z,1.80
2022-09-04T02:19:24.504Z,1.60
2022-09-04T02:22:23.809Z,1.80
2022-09-04T02:25:02.854Z,2.35
2022-09-04T02:27:41.603Z,1.83
2022-09-04T02:30:10.728Z,2.22
2022-09-04T02:32:54.176Z,1.80
2022-09-04T02:35:24.071Z,1.85
2022-09-04T02:38:28.964Z,2.05
2022-09-04T02:41:06.398Z,1.73
2022-09-04T02:43:52.198Z,2.20
2022-09-04T02:46:33.531Z,1.65
2022-09-04T02:49:37.595Z,1.65
2022-09-04T02:52:13.770Z,1.90
2022-09-04T02:55:08.566Z,2.28
2022-09-04T02:57:41.704Z,1.70
2022-09-04T03:00:20.986Z,1.67
2022-09-04T03:03:07.149Z,1.80
2022-09-04T03:05:50.197Z,1.42
2022-09-04T03:08:53.816Z,1.50
2022-09-04T03:11:52.459Z,1.67
2022-09-04T03:14:49.315Z,1.50
2022-09-04T03:17:25.064Z,1.77
2022-09-04T03:20:03.753Z,1.70
2022-09-04T03:22:45.786Z,1.73
2022-09-04T03:25:51.364Z,1.90
2022-09-04T03:28:34.972Z,2.28
2022-09-04T03:31:22.995Z,1.52
2022-09-04T03:34:22.392Z,1.30
2022-09-04T03:37:06.271Z,1.40
2022-09-04T03:39:46.281Z,1.67
2022-09-04T03:42:42.520Z,1.52
2022-09-04T03:45:25.923Z,1.45
2022-09-04T03:48:26.576Z,1.65
2022-09-04T03:51:17.388Z,1.25
2022-09-04T03:54:15.322Z,2.00
2022-09-04T03:57:20.163Z,1.60
2022-09-04T04:00:11.186Z,1.40
2022-09-04T04:02:56.291Z,1.70
2022-09-04T04:05:41.409Z,1.83
2022-09-04T04:08:33.122Z,1.80
2022-09-04T04:11:35.155Z,1.52
2022-09-04T04:14:46.541Z,1.90
2022-09-04T04:17:20.289Z,1.33
2022-09-04T04:20:04.563Z,1.33
2022-09-04T04:22:55.465Z,1.10
2022-09-04T04:25:52.389Z,1.20
2022-09-04T04:28:31.732Z,1.23
2022-09-04T04:31:07.972Z,1.10
2022-09-04T04:33:55.430Z,1.40
2022-09-04T04:36:37.587Z,1.30
2022-09-04T04:39:14.561Z,0.95
2022-09-04T04:42:06.526Z,1.27
2022-09-04T04:47:50.120Z,1.23
2022-09-04T04:53:33.087Z,1.40
2022-09-04T04:56:15.264Z,0.82
2022-09-04T04:58:42.499Z,0.90
2022-09-04T05:01:35.120Z,0.70
2022-09-04T05:04:11.545Z,1.20
2022-09-04T05:06:49.869Z,1.00
2022-09-04T05:09:33.943Z,0.95
2022-09-04T05:12:48.544Z,0.80
2022-09-04T05:16:05.087Z,0.75
2022-09-04T05:18:47.003Z,0.93
2022-09-04T05:21:38.714Z,1.30
2022-09-04T05:24:31.946Z,1.13
2022-09-04T05:27:11.286Z,1.67
2022-09-04T05:30:17.185Z,1.33
2022-09-04T05:33:13.646Z,1.10
2022-09-04T05:35:47.712Z,1.70
2022-09-04T05:39:05.713Z,1.83
2022-09-04T05:41:58.293Z,1.38
2022-09-04T05:44:50.369Z,1.50
2022-09-04T05:47:48.552Z,1.70
2022-09-04T05:50:50.500Z,2.75
2022-09-04T05:53:39.847Z,1.80
2022-09-04T05:56:38.069Z,1.65
2022-09-04T05:59:10.206Z,1.58
2022-09-04T06:02:20.063Z,1.92
2022-09-04T06:05:13.656Z,1.13
2022-09-04T06:08:31.310Z,1.88
2022-09-04T06:11:51.839Z,2.10
2022-09-04T06:14:42.866Z,2.33
2022-09-04T06:17:52.085Z,2.10
2022-09-04T06:20:33.723Z,2.30
2022-09-04T06:23:24.614Z,2.10
2022-09-04T06:26:06.707Z,1.27
2022-09-04T06:29:05.262Z,1.55
2022-09-04T06:32:18.740Z,1.20
2022-09-04T06:35:16.810Z,1.38
2022-09-04T06:38:10.996Z,1.92
2022-09-04T06:40:50.582Z,2.00
2022-09-04T06:43:46.246Z,1.38
2022-09-04T06:46:30.149Z,1.98
2022-09-04T06:49:12.291Z,1.95
2022-09-04T06:52:26.990Z,1.33
2022-09-04T06:55:09.379Z,1.40
2022-09-04T06:57:55.409Z,1.52
2022-09-04T07:00:40.743Z,1.40
2022-09-04T07:03:19.608Z,1.33
2022-09-04T07:06:12.829Z,1.10
2022-09-04T07:09:11.993Z,1.25
2022-09-04T07:11:48.391Z,1.52
2022-09-04T07:14:58.854Z,1.48
2022-09-04T07:17:53.553Z,1.60
2022-09-04T07:20:32.617Z,1.17
2022-09-04T07:23:33.573Z,1.48
2022-09-04T07:26:21.662Z,0.98
2022-09-04T07:29:25.144Z,1.00
2022-09-04T07:32:08.687Z,0.85
2022-09-04T07:35:01.140Z,1.20
2022-09-04T07:38:02.494Z,1.10
2022-09-04T07:41:00.555Z,1.00
2022-09-04T07:43:58.848Z,0.90
2022-09-04T07:46:32.612Z,0.90
2022-09-04T07:49:27.251Z,0.90
2022-09-04T07:52:50.623Z,1.10
2022-09-04T07:55:25.753Z,0.88
2022-09-04T07:58:08.264Z,1.00
2022-09-04T08:00:57.702Z,0.98
2022-09-04T08:03:54.531Z,0.80
2022-09-04T08:06:31.858Z,1.05
2022-09-04T08:09:31.584Z,0.57
2022-09-04T08:12:22.264Z,0.82
2022-09-04T08:14:52.890Z,0.90
2022-09-04T08:17:46.894Z,0.77
2022-09-04T08:20:57.889Z,0.73
2022-09-04T08:24:14.264Z,1.10
2022-09-04T08:27:20.510Z,0.75
2022-09-04T08:30:04.615Z,0.95
2022-09-04T08:33:03.007Z,0.70
2022-09-04T08:35:29.918Z,0.60
2022-09-04T08:38:24.308Z,0.70
2022-09-04T08:41:07.030Z,0.60
2022-09-04T08:44:06.012Z,0.68
2022-09-04T08:46:58.328Z,0.60
2022-09-04T08:49:31.278Z,0.80
2022-09-04T08:52:18.450Z,0.70
2022-09-04T08:55:03.345Z,0.90
2022-09-04T08:58:18.565Z,0.80
2022-09-04T09:01:13.143Z,0.70
2022-09-04T09:04:02.011Z,0.80
2022-09-04T09:06:44.533Z,0.68
2022-09-04T09:09:32.821Z,0.60
2022-09-04T09:12:09.170Z,0.75
2022-09-04T09:14:47.706Z,0.60
2022-09-04T09:17:37.409Z,0.60
2022-09-04T09:20:37.940Z,0.60
2022-09-04T09:23:52.307Z,0.68
2022-09-04T09:26:34.035Z,0.70
2022-09-04T09:29:20.237Z,0.50
2022-09-04T09:32:09.163Z,0.60
2022-09-04T09:35:02.924Z,0.57
2022-09-04T09:38:05.256Z,0.60
2022-09-04T09:41:06.534Z,0.80
2022-09-04T09:43:51.406Z,0.50
2022-09-04T09:46:30.360Z,0.70
2022-09-04T09:49:41.756Z,0.70
2022-09-04T09:52:21.579Z,0.70
2022-09-04T09:55:23.267Z,0.70
2022-09-04T09:58:21.374Z,0.93
2022-09-04T10:01:08.610Z,0.70
2022-09-04T10:03:48.179Z,0.70
2022-09-04T10:06:45.496Z,0.70
2022-09-04T10:09:24.475Z,0.60
2022-09-04T10:12:29.084Z,0.57
2022-09-04T10:15:22.993Z,0.80
2022-09-04T10:18:35.293Z,0.80
2022-09-04T10:21:17.137Z,0.65
2022-09-04T10:24:07.352Z,0.65
2022-09-04T10:26:50.189Z,0.70
2022-09-04T10:29:41.842Z,0.60
2022-09-04T10:32:11.749Z,0.60
2022-09-04T10:35:00.542Z,0.70
2022-09-04T10:37:33.412Z,0.70
2022-09-04T10:40:43.979Z,0.77
2022-09-04T10:43:40.517Z,0.70
2022-09-04T10:46:33.662Z,0.95
2022-09-04T10:49:06.883Z,0.80
2022-09-04T10:51:56.475Z,0.70
2022-09-04T10:54:38.461Z,0.80
2022-09-04T10:57:27.773Z,0.70
2022-09-04T11:00:01.050Z,0.70
2022-09-04T11:02:36.995Z,0.90
2022-09-04T11:05:37.895Z,0.60
2022-09-04T11:08:16.820Z,0.70
2022-09-04T11:11:05.930Z,0.90
2022-09-04T11:14:08.251Z,1.00
2022-09-04T11:16:59.977Z,1.00
2022-09-04T11:20:18.244Z,1.10
2022-09-04T11:22:48.590Z,0.75
2022-09-04T11:25:42.837Z,1.08
2022-09-04T11:28:31.263Z,1.02
2022-09-04T11:31:21.096Z,0.85
2022-09-04T11:34:15.918Z,0.88
2022-09-04T11:37:20.095Z,0.80
2022-09-04T11:40:01.423Z,0.90
2022-09-04T11:42:44.789Z,0.77
2022-09-04T11:45:48.861Z,1.00
2022-09-04T11:48:20.185Z,0.80
2022-09-04T11:51:01.703Z,0.93
2022-09-04T11:53:49.924Z,0.65
2022-09-04T11:56:41.453Z,1.02
2022-09-04T11:59:59.156Z,0.65
2022-09-04T12:02:44.791Z,0.80
2022-09-04T12:05:43.252Z,0.90
2022-09-04T12:08:24.304Z,0.90
2022-09-04T12:11:22.594Z,0.70
2022-09-04T12:13:59.035Z,0.77
2022-09-04T12:16:57.291Z,0.85
2022-09-04T12:19:43.519Z,0.80
2022-09-04T12:22:55.300Z,0.70
2022-09-04T12:25:41.374Z,0.70
2022-09-04T12:28:27.173Z,0.60
2022-09-04T12:30:54.150Z,0.80
2022-09-04T12:33:30.575Z,0.80
2022-09-04T12:36:21.884Z,1.10
2022-09-04T12:39:12.172Z,0.80
2022-09-04T12:42:01.554Z,1.00
2022-09-04T12:44:46.863Z,0.60
2022-09-04T12:47:22.707Z,0.82
2022-09-04T12:49:58.264Z,0.80
2022-09-04T12:52:47.957Z,0.90
2022-09-04T12:55:41.818Z,1.08
2022-09-04T12:58:14.878Z,1.10
2022-09-04T13:01:11.543Z,1.25
2022-09-04T13:03:44.556Z,0.90
2022-09-04T13:06:18.233Z,1.05
2022-09-04T13:09:20.317Z,0.80
2022-09-04T13:55:02.677Z,0.98
2022-09-04T13:57:38.620Z,0.90
2022-09-04T14:00:08.077Z,0.85
2022-09-04T14:02:36.874Z,1.13
2022-09-04T14:05:13.603Z,1.00
2022-09-04T14:07:47.659Z,1.10
2022-09-04T14:10:21.232Z,1.00
2022-09-04T14:12:54.587Z,1.30
2022-09-04T14:15:33.596Z,1.00
2022-09-04T14:18:08.310Z,1.17
2022-09-04T14:20:51.807Z,0.85
2022-09-04T14:23:40.522Z,0.98
2022-09-04T14:26:07.532Z,0.85
2022-09-04T14:29:07.339Z,0.85
2022-09-04T14:31:55.676Z,0.85
2022-09-04T14:34:41.499Z,1.00
2022-09-04T14:37:36.782Z,1.10
2022-09-04T14:40:12.936Z,1.00
2022-09-04T14:43:04.394Z,0.95
2022-09-04T14:45:55.103Z,1.13
2022-09-04T14:48:24.244Z,1.50
2022-09-04T14:51:00.074Z,1.50
2022-09-04T14:53:34.371Z,1.65
2022-09-04T14:56:07.551Z,1.27
2022-09-04T14:58:50.541Z,1.42
2022-09-04T15:01:25.956Z,1.50
2022-09-04T15:04:16.122Z,1.70
2022-09-04T15:07:10.321Z,1.55
2022-09-04T15:09:41.130Z,1.52
2022-09-04T15:15:18.614Z,1.70
2022-09-04T15:17:53.040Z,1.38
2022-09-04T15:20:24.491Z,1.40
2022-09-04T15:22:54.705Z,1.50
2022-09-04T15:25:54.720Z,1.42
2022-09-04T15:28:34.233Z,1.45
2022-09-04T15:33:46.848Z,1.83
2022-09-04T15:36:23.400Z,2.03
2022-09-04T15:39:05.978Z,1.50
2022-09-04T15:41:39.781Z,1.92
2022-09-04T15:44:18.789Z,1.30
2022-09-04T15:47:03.864Z,1.75
2022-09-04T15:49:52.646Z,1.50
2022-09-04T15:52:44.935Z,1.45
2022-09-04T15:55:24.256Z,1.52
2022-09-04T15:58:33.523Z,1.38
2022-09-04T16:01:06.437Z,1.20
2022-09-04T16:03:45.696Z,1.27
2022-09-04T16:06:32.322Z,1.30
2022-09-04T16:09:07.710Z,1.05
2022-09-04T16:11:41.719Z,1.27
2022-09-04T16:14:44.729Z,1.13
2022-09-04T16:17:27.174Z,1.10
2022-09-04T16:20:09.899Z,1.20
2022-09-04T16:22:47.818Z,10.00
2022-09-04T16:25:43.178Z,1.77
2022-09-04T16:28:10.185Z,1.27
2022-09-04T16:30:47.109Z,1.50
2022-09-04T16:33:45.813Z,1.83
2022-09-04T16:36:28.501Z,1.70
2022-09-04T16:39:01.528Z,1.50
2022-09-04T16:41:31.472Z,1.55
2022-09-04T16:44:11.128Z,1.42
2022-09-04T16:47:03.075Z,1.80
2022-09-04T16:52:22.041Z,1.45
2022-09-04T16:55:02.583Z,1.50
2022-09-04T16:57:38.067Z,1.42
2022-09-04T17:00:13.753Z,1.52
2022-09-04T17:02:53.863Z,1.40
2022-09-04T17:05:35.742Z,1.50
2022-09-04T17:08:13.489Z,1.50
2022-09-04T17:10:49.754Z,1.30
2022-09-04T17:13:37.061Z,1.10
2022-09-04T17:16:18.703Z,1.38
2022-09-04T17:18:54.812Z,1.13
2022-09-04T17:26:26.804Z,1.17
2022-09-04T17:29:00.565Z,1.30
2022-09-04T17:29:11.748Z,1.30
2022-09-04T17:30:44.710Z,1.42
2022-09-04T17:37:23.598Z,1.10
2022-09-04T17:40:50.560Z,1.10
2022-09-04T17:40:56.465Z,1.10
2022-09-04T17:43:14.846Z,1.60
2022-09-04T17:45:46.551Z,1.50
2022-09-04T17:48:26.775Z,1.20
2022-09-04T17:50:58.422Z,1.45
2022-09-04T17:56:18.141Z,1.20
2022-09-04T17:59:07.981Z,1.30
2022-09-04T18:02:01.370Z,1.20
2022-09-04T18:04:35.544Z,1.48
2022-09-04T18:08:07.339Z,1.15
2022-09-04T18:10:32.695Z,1.27
2022-09-04T18:13:36.348Z,1.10
2022-09-04T18:16:10.456Z,1.42
2022-09-04T18:18:54.657Z,1.30
2022-09-04T18:21:31.599Z,1.63
2022-09-04T18:24:26.661Z,1.40
2022-09-04T18:27:07.819Z,1.52
2022-09-04T18:32:57.627Z,1.50
2022-09-04T18:37:17.530Z,1.52
2022-09-04T18:37:18.591Z,1.63
2022-09-04T18:39:08.337Z,1.23
2022-09-04T18:50:25.139Z,1.33
2022-09-04T18:50:36.248Z,1.42
2022-09-04T18:50:40.488Z,1.48
2022-09-04T18:53:43.486Z,1.40
2022-09-04T18:56:29.043Z,1.67
2022-09-04T18:59:33.110Z,1.40
2022-09-04T19:02:18.710Z,1.55
2022-09-04T19:05:03.541Z,1.50
2022-09-04T19:07:35.601Z,1.70
2022-09-04T19:10:02.954Z,1.50
2022-09-04T19:12:47.137Z,1.33
2022-09-04T19:15:46.093Z,1.80
2022-09-04T19:18:27.564Z,1.58
2022-09-04T19:21:12.541Z,1.63
2022-09-04T19:23:53.564Z,1.50
2022-09-04T19:26:52.931Z,1.80
2022-09-04T19:29:30.809Z,1.98
2022-09-04T19:32:08.610Z,1.90
2022-09-04T19:35:08.494Z,1.95
2022-09-04T19:40:38.429Z,1.92
2022-09-04T19:46:04.424Z,2.33
2022-09-04T19:46:08.582Z,1.83
2022-09-04T19:47:28.433Z,1.90
2022-09-04T19:53:22.117Z,1.80
2022-09-04T19:53:37.696Z,2.00
2022-09-04T19:57:00.058Z,2.10
2022-09-04T19:59:45.376Z,2.35
2022-09-04T20:02:44.322Z,2.00
2022-09-04T20:05:29.315Z,1.95
2022-09-04T20:07:56.478Z,2.33
2022-09-04T20:10:46.075Z,2.00
2022-09-04T20:13:27.693Z,2.20
2022-09-04T20:16:29.188Z,1.80
2022-09-04T20:19:27.554Z,2.50
2022-09-04T20:22:06.528Z,2.28
2022-09-04T20:25:01.768Z,2.30
2022-09-04T20:27:40.975Z,2.28
2022-09-04T20:30:21.254Z,2.22
2022-09-04T20:33:11.572Z,2.00
2022-09-04T20:35:55.611Z,1.92
2022-09-04T20:38:30.721Z,2.30
2022-09-04T20:41:03.629Z,2.55
2022-09-04T20:44:03.596Z,2.25
2022-09-04T20:51:36.227Z,2.35
2022-09-04T20:52:52.615Z,2.25
2022-09-04T20:52:55.058Z,2.70
2022-09-04T20:55:32.199Z,2.42
2022-09-04T21:02:45.923Z,2.88
2022-09-04T21:03:19.846Z,2.30
2022-09-04T21:03:57.414Z,2.33
2022-09-04T21:07:01.995Z,2.78
2022-09-04T21:09:54.900Z,3.42
2022-09-04T21:12:40.055Z,3.17
2022-09-04T21:15:17.282Z,2.65
2022-09-04T21:18:32.505Z,2.45
2022-09-04T21:21:41.281Z,2.63
2022-09-04T21:24:50.356Z,2.50
2022-09-04T21:27:58.551Z,2.45
2022-09-04T21:31:22.246Z,2.67
2022-09-04T21:34:20.848Z,2.30
2022-09-04T21:36:59.571Z,2.22
2022-09-04T21:39:45.365Z,2.40
2022-09-04T21:42:30.936Z,2.22
2022-09-04T21:45:23.373Z,2.42
2022-09-04T21:48:23.548Z,2.40
2022-09-04T21:51:28.951Z,2.50
2022-09-04T21:55:39.072Z,2.47
2022-09-04T22:02:26.846Z,2.20
2022-09-04T22:03:29.454Z,2.47
2022-09-04T22:06:04.164Z,2.15
2022-09-04T22:13:33.969Z,2.70
2022-09-04T22:13:46.421Z,2.35
2022-09-04T22:14:46.473Z,2.22
2022-09-04T22:17:35.229Z,2.40
2022-09-04T22:20:20.400Z,2.50
2022-09-04T22:23:09.941Z,2.58
2022-09-04T22:26:09.992Z,2.60
2022-09-04T22:28:54.926Z,3.05
2022-09-04T22:31:24.762Z,2.65
2022-09-04T22:34:24.109Z,2.72
2022-09-04T22:37:10.917Z,2.78
2022-09-04T22:39:57.462Z,2.42
2022-09-04T22:42:39.494Z,2.22
2022-09-04T22:45:21.017Z,2.97
2022-09-04T22:48:01.435Z,2.47
2022-09-04T22:50:55.078Z,2.85
2022-09-04T22:53:40.858Z,3.17
2022-09-04T22:56:24.065Z,3.03
2022-09-04T22:59:25.879Z,2.55
2022-09-04T23:01:54.399Z,2.78
2022-09-04T23:04:43.729Z,2.85
2022-09-04T23:13:43.349Z,3.00
2022-09-04T23:13:46.232Z,2.67
2022-09-04T23:14:07.464Z,2.78
2022-09-04T23:17:04.185Z,2.70
2022-09-04T23:24:06.013Z,3.00
2022-09-04T23:26:47.717Z,2.90
2022-09-04T23:26:52.822Z,3.10
2022-09-04T23:29:31.271Z,2.60
2022-09-04T23:32:36.173Z,2.88
2022-09-04T23:35:14.727Z,3.10
2022-09-04T23:38:23.983Z,2.60
2022-09-04T23:40:56.669Z,2.80
2022-09-04T23:43:29.639Z,2.55
2022-09-04T23:46:34.635Z,2.42
2022-09-04T23:49:24.004Z,3.05
2022-09-04T23:52:08.176Z,2.78
2022-09-04T23:54:59.957Z,2.78
2022-09-04T23:57:28.321Z,2.55
